createdAt,value
2022-09-28T00:01:18.902Z,10.20
2022-09-28T00:03:48.096Z,10.20
2022-09-28T00:06:17.093Z,10.30
2022-09-28T00:08:43.822Z,10.20
2022-09-28T00:11:15.065Z,10.20
2022-09-28T00:13:43.107Z,10.20
2022-09-28T00:16:16.745Z,10.10
2022-09-28T00:18:43.817Z,10.10
2022-09-28T00:21:13.456Z,10.10
2022-09-28T00:24:00.592Z,10.10
2022-09-28T00:26:29.595Z,10.00
2022-09-28T00:28:59.188Z,10.00
2022-09-28T00:31:29.327Z,10.00
2022-09-28T00:34:00.264Z,10.00
2022-09-28T00:36:29.418Z,9.90
2022-09-28T00:38:57.669Z,10.00
2022-09-28T00:41:28.499Z,10.00
2022-09-28T00:44:31.446Z,10.00
2022-09-28T00:47:27.288Z,9.90
2022-09-28T00:50:05.397Z,9.90
2022-09-28T00:52:46.141Z,9.80
2022-09-28T00:55:17.861Z,9.80
2022-09-28T00:57:47.613Z,9.80
2022-09-28T01:00:15.320Z,9.80
2022-09-28T01:02:44.373Z,9.80
2022-09-28T01:05:12.506Z,9.90
2022-09-28T01:07:42.428Z,9.90
2022-09-28T01:10:10.361Z,9.90
2022-09-28T01:12:37.076Z,9.90
2022-09-28T01:15:05.548Z,9.90
2022-09-28T01:18:01.083Z,9.80
2022-09-28T01:20:51.421Z,9.80
2022-09-28T01:23:42.378Z,9.90
2022-09-28T01:26:39.866Z,9.90
2022-09-28T01:29:22.170Z,10.00
2022-09-28T01:31:56.636Z,9.90
2022-09-28T01:34:52.980Z,10.00
2022-09-28T01:37:25.507Z,10.00
2022-09-28T01:39:55.919Z,10.00
2022-09-28T01:42:29.810Z,10.00
2022-09-28T01:45:02.550Z,10.00
2022-09-28T01:47:34.233Z,10.00
2022-09-28T01:50:05.134Z,10.00
2022-09-28T01:52:40.646Z,10.00
2022-09-28T01:55:29.513Z,10.10
2022-09-28T01:58:03.369Z,10.10
2022-09-28T02:00:30.354Z,10.00
2022-09-28T02:03:01.035Z,10.00
2022-09-28T02:05:39.404Z,10.00
2022-09-28T02:08:15.797Z,10.10
2022-09-28T02:10:58.173Z,10.10
2022-09-28T02:13:31.913Z,10.10
2022-09-28T02:16:10.267Z,10.10
2022-09-28T02:18:37.130Z,10.10
2022-09-28T02:21:13.466Z,10.10
2022-09-28T02:23:49.262Z,10.10
2022-09-28T02:26:23.098Z,10.10
2022-09-28T02:28:50.158Z,10.10
2022-09-28T02:31:17.303Z,10.00
2022-09-28T02:33:45.450Z,10.00
2022-09-28T02:36:12.780Z,10.00
2022-09-28T02:38:39.772Z,10.00
2022-09-28T02:41:34.535Z,10.00
2022-09-28T02:44:01.410Z,10.00
2022-09-28T02:46:50.572Z,10.00
2022-09-28T02:49:34.562Z,10.00
2022-09-28T02:52:39.401Z,10.00
2022-09-28T02:55:28.414Z,10.00
2022-09-28T02:58:18.870Z,10.00
2022-09-28T03:01:01.804Z,10.00
2022-09-28T03:04:12.245Z,10.10
2022-09-28T03:07:03.295Z,10.00
2022-09-28T03:09:39.355Z,10.00
2022-09-28T03:12:16.147Z,10.10
2022-09-28T03:14:45.163Z,10.10
2022-09-28T03:17:12.107Z,10.10
2022-09-28T03:19:40.220Z,10.10
2022-09-28T03:22:08.086Z,10.10
2022-09-28T03:24:34.974Z,10.20
2022-09-28T03:27:02.851Z,10.20
2022-09-28T03:29:31.531Z,10.10
2022-09-28T03:32:01.831Z,10.10
2022-09-28T03:34:28.805Z,10.10
2022-09-28T03:36:56.423Z,10.10
2022-09-28T03:39:23.214Z,10.10
2022-09-28T03:41:50.120Z,10.10
2022-09-28T03:44:19.052Z,10.10
2022-09-28T03:46:47.045Z,10.10
2022-09-28T03:49:13.957Z,10.20
2022-09-28T03:51:40.735Z,10.10
2022-09-28T03:54:08.791Z,10.10
2022-09-28T03:56:35.678Z,10.10
2022-09-28T03:59:07.324Z,10.10
2022-09-28T04:01:35.967Z,10.00
2022-09-28T04:04:03.235Z,10.10
2022-09-28T04:06:30.814Z,10.10
2022-09-28T04:08:57.668Z,10.10
2022-09-28T04:11:25.902Z,10.00
2022-09-28T04:13:52.621Z,10.00
2022-09-28T04:16:19.806Z,10.00
2022-09-28T04:19:06.521Z,10.00
2022-09-28T04:21:48.042Z,10.00
2022-09-28T04:24:14.993Z,10.00
2022-09-28T04:26:41.823Z,10.00
2022-09-28T04:29:17.124Z,10.00
2022-09-28T04:31:52.861Z,10.00
2022-09-28T04:34:23.411Z,9.90
2022-09-28T04:36:50.512Z,9.90
2022-09-28T04:39:19.395Z,9.90
2022-09-28T04:41:49.645Z,9.80
2022-09-28T04:44:16.975Z,9.80
2022-09-28T04:46:45.697Z,9.80
2022-09-28T04:49:38.820Z,9.80
2022-09-28T04:52:17.204Z,9.70
2022-09-28T04:54:45.251Z,9.80
2022-09-28T04:57:11.993Z,9.80
2022-09-28T04:59:39.079Z,9.80
2022-09-28T05:02:06.045Z,9.70
2022-09-28T05:04:51.340Z,9.70
2022-09-28T05:07:36.875Z,9.70
2022-09-28T05:10:06.198Z,9.70
2022-09-28T05:12:33.613Z,9.60
2022-09-28T05:15:00.812Z,9.50
2022-09-28T05:17:28.433Z,9.50
2022-09-28T05:20:05.251Z,9.50
2022-09-28T05:22:33.582Z,9.40
2022-09-28T05:25:00.697Z,9.40
2022-09-28T05:27:31.646Z,9.50
2022-09-28T05:30:07.595Z,9.50
2022-09-28T05:32:57.239Z,9.50
2022-09-28T05:35:34.619Z,9.60
2022-09-28T05:38:05.479Z,9.70
2022-09-28T05:40:33.231Z,9.70
2022-09-28T05:43:01.862Z,9.70
2022-09-28T05:45:29.980Z,9.70
2022-09-28T05:47:56.966Z,9.70
2022-09-28T05:50:23.854Z,9.70
2022-09-28T05:52:59.671Z,9.70
2022-09-28T05:55:26.740Z,9.70
2022-09-28T05:57:53.457Z,9.70
2022-09-28T06:00:20.280Z,9.80
2022-09-28T06:03:08.640Z,9.80
2022-09-28T06:05:36.766Z,9.90
2022-09-28T06:08:05.282Z,9.90
2022-09-28T06:10:32.822Z,10.00
2022-09-28T06:13:01.735Z,10.00
2022-09-28T06:15:30.443Z,10.00
2022-09-28T06:17:59.817Z,10.10
2022-09-28T06:20:40.980Z,10.20
2022-09-28T06:23:15.627Z,10.20
2022-09-28T06:25:43.008Z,10.20
2022-09-28T06:28:11.828Z,10.20
2022-09-28T06:30:40.305Z,10.20
2022-09-28T06:33:12.824Z,10.20
2022-09-28T06:35:40.989Z,10.30
2022-09-28T06:38:08.085Z,10.30
2022-09-28T06:40:35.158Z,10.40
2022-09-28T06:43:10.024Z,10.60
2022-09-28T06:45:55.675Z,10.70
2022-09-28T06:48:44.214Z,10.70
2022-09-28T06:51:46.710Z,10.60
2022-09-28T06:54:25.773Z,10.60
2022-09-28T06:57:11.179Z,10.70
2022-09-28T06:59:38.528Z,10.60
2022-09-28T07:02:05.516Z,10.60
2022-09-28T07:04:54.167Z,10.70
2022-09-28T07:07:50.144Z,10.50
2022-09-28T07:10:45.745Z,10.40
2022-09-28T07:13:55.994Z,10.40
2022-09-28T07:16:27.438Z,10.40
2022-09-28T07:18:57.049Z,10.30
2022-09-28T07:21:29.882Z,10.40
2022-09-28T07:24:00.345Z,10.40
2022-09-28T07:26:45.542Z,10.60
2022-09-28T07:29:20.680Z,10.70
2022-09-28T07:32:11.074Z,10.70
2022-09-28T07:34:59.291Z,10.80
2022-09-28T07:38:06.773Z,10.90
2022-09-28T07:40:54.162Z,11.10
2022-09-28T07:43:22.217Z,11.20
2022-09-28T07:45:54.041Z,11.20
2022-09-28T07:48:21.824Z,11.10
2022-09-28T07:51:08.104Z,11.00
2022-09-28T07:53:40.515Z,10.90
2022-09-28T07:56:20.348Z,10.80
2022-09-28T07:59:07.798Z,11.00
2022-09-28T08:01:53.191Z,11.30
2022-09-28T08:04:20.677Z,11.50
2022-09-28T08:06:48.239Z,11.70
2022-09-28T08:09:15.297Z,11.60
2022-09-28T08:12:21.384Z,11.70
2022-09-28T08:15:04.531Z,11.80
2022-09-28T08:17:47.120Z,11.80
2022-09-28T08:20:33.106Z,11.80
2022-09-28T08:23:07.387Z,12.10
2022-09-28T08:25:38.402Z,12.40
2022-09-28T08:28:07.286Z,12.70
2022-09-28T08:30:38.768Z,12.90
2022-09-28T08:33:21.511Z,13.00
2022-09-28T08:36:06.990Z,12.80
2022-09-28T08:38:52.370Z,12.70
2022-09-28T08:41:50.518Z,12.60
2022-09-28T08:44:49.945Z,12.30
2022-09-28T08:48:19.208Z,12.40
2022-09-28T08:51:25.544Z,12.40
2022-09-28T08:54:42.521Z,12.30
2022-09-28T08:57:20.779Z,12.10
2022-09-28T08:59:55.724Z,12.20
2022-09-28T09:02:34.659Z,12.40
2022-09-28T09:05:19.005Z,12.60
2022-09-28T09:08:20.077Z,12.60
2022-09-28T09:11:07.013Z,12.70
2022-09-28T09:14:00.645Z,12.60
2022-09-28T09:17:00.596Z,12.60
2022-09-28T09:19:42.992Z,12.50
2022-09-28T09:22:50.808Z,12.40
2022-09-28T09:25:49.426Z,12.40
2022-09-28T09:28:38.263Z,12.50
2022-09-28T09:31:30.149Z,12.60
2022-09-28T09:34:09.071Z,12.70
2022-09-28T09:37:23.853Z,13.00
2022-09-28T09:40:41.914Z,13.20
2022-09-28T09:43:31.687Z,13.50
2022-09-28T09:46:41.794Z,13.40
2022-09-28T09:49:33.952Z,13.20
2022-09-28T09:52:06.508Z,13.10
2022-09-28T09:54:39.223Z,13.00
2022-09-28T09:57:17.265Z,12.90
2022-09-28T09:59:48.503Z,13.10
2022-09-28T10:02:42.139Z,13.30
2022-09-28T10:05:29.780Z,13.30
2022-09-28T10:08:13.293Z,13.30
2022-09-28T10:11:02.401Z,13.30
2022-09-28T10:13:32.123Z,13.20
2022-09-28T10:16:02.776Z,13.30
2022-09-28T10:18:35.760Z,13.50
2022-09-28T10:21:23.507Z,13.60
2022-09-28T10:23:58.496Z,14.00
2022-09-28T10:26:35.486Z,14.00
2022-09-28T10:29:06.136Z,13.90
2022-09-28T10:31:37.139Z,13.90
2022-09-28T10:34:08.538Z,13.60
2022-09-28T10:36:45.229Z,13.60
2022-09-28T10:39:38.103Z,13.70
2022-09-28T10:42:13.390Z,13.90
2022-09-28T10:44:59.564Z,13.80
2022-09-28T10:47:35.481Z,13.70
2022-09-28T10:50:25.109Z,13.60
2022-09-28T10:53:26.811Z,13.50
2022-09-28T10:56:22.809Z,13.50
2022-09-28T10:58:58.737Z,13.30
2022-09-28T11:01:43.913Z,13.30
2022-09-28T11:04:21.789Z,13.20
2022-09-28T11:06:50.286Z,13.30
2022-09-28T11:09:30.769Z,13.50
2022-09-28T11:12:05.957Z,13.60
2022-09-28T11:14:38.387Z,13.80
2022-09-28T11:17:24.364Z,14.10
2022-09-28T11:19:52.277Z,14.00
2022-09-28T11:22:31.239Z,13.90
2022-09-28T11:25:17.492Z,13.90
2022-09-28T11:28:00.475Z,13.70
2022-09-28T11:31:00.298Z,13.60
2022-09-28T11:33:40.329Z,13.50
2022-09-28T11:37:01.577Z,13.10
2022-09-28T11:39:45.331Z,12.80
2022-09-28T11:42:16.200Z,12.50
2022-09-28T11:44:46.961Z,12.20
2022-09-28T11:47:24.037Z,12.10
2022-09-28T11:50:03.101Z,12.00
2022-09-28T11:52:41.423Z,12.10
2022-09-28T11:55:40.702Z,12.20
2022-09-28T11:58:20.126Z,12.30
2022-09-28T12:00:52.120Z,12.30
2022-09-28T12:03:28.898Z,12.20
2022-09-28T12:05:59.606Z,12.20
2022-09-28T12:08:37.368Z,12.20
2022-09-28T12:11:21.745Z,12.20
2022-09-28T12:14:18.754Z,12.20
2022-09-28T12:17:05.644Z,12.30
2022-09-28T12:19:42.374Z,12.50
2022-09-28T12:22:34.711Z,12.90
2022-09-28T12:25:03.695Z,13.00
2022-09-28T12:27:45.435Z,13.20
2022-09-28T12:30:19.432Z,13.40
2022-09-28T12:32:48.587Z,13.50
2022-09-28T12:35:34.575Z,13.60
2022-09-28T12:38:20.306Z,13.80
2022-09-28T12:41:06.477Z,13.90
2022-09-28T12:43:39.922Z,13.90
2022-09-28T12:46:13.110Z,13.80
2022-09-28T12:49:43.695Z,13.70
2022-09-28T12:51:54.378Z,13.50
2022-09-28T12:54:53.281Z,13.50
2022-09-28T12:57:41.262Z,13.60
2022-09-28T13:00:13.708Z,13.80
2022-09-28T13:03:09.647Z,14.00
2022-09-28T13:06:05.403Z,14.00
2022-09-28T13:08:49.511Z,13.70
2022-09-28T13:11:19.387Z,13.60
2022-09-28T13:14:12.086Z,13.60
2022-09-28T13:17:00.910Z,13.60
2022-09-28T13:19:42.904Z,13.60
2022-09-28T13:22:19.816Z,13.60
2022-09-28T13:24:49.123Z,13.60
2022-09-28T13:27:24.103Z,13.60
2022-09-28T13:29:51.643Z,13.70
2022-09-28T13:32:19.321Z,13.80
2022-09-28T13:34:50.465Z,13.90
2022-09-28T13:37:17.123Z,14.10
2022-09-28T13:39:52.196Z,14.10
2022-09-28T13:42:24.626Z,14.20
2022-09-28T13:45:24.894Z,14.20
2022-09-28T13:47:54.690Z,14.30
2022-09-28T13:50:43.122Z,14.40
2022-09-28T13:53:27.777Z,14.40
2022-09-28T13:55:57.361Z,14.40
2022-09-28T13:58:24.032Z,14.30
2022-09-28T14:01:00.041Z,14.30
2022-09-28T14:03:44.425Z,14.40
2022-09-28T14:06:29.224Z,14.40
2022-09-28T14:08:58.963Z,14.40
2022-09-28T14:11:34.940Z,14.40
2022-09-28T14:14:11.275Z,14.30
2022-09-28T14:16:41.636Z,14.30
2022-09-28T14:19:26.494Z,14.20
2022-09-28T14:22:24.319Z,14.40
2022-09-28T14:25:32.524Z,14.70
2022-09-28T14:28:18.084Z,14.80
2022-09-28T14:30:51.389Z,14.70
2022-09-28T14:33:20.864Z,14.70
2022-09-28T14:35:55.525Z,14.70
2022-09-28T14:38:49.668Z,14.60
2022-09-28T14:41:17.611Z,14.50
2022-09-28T14:43:44.266Z,14.40
2022-09-28T14:46:11.267Z,14.30
2022-09-28T14:49:05.454Z,14.40
2022-09-28T14:51:35.274Z,14.40
2022-09-28T14:54:12.477Z,14.50
2022-09-28T14:56:54.275Z,14.40
2022-09-28T14:59:25.272Z,14.30
2022-09-28T15:02:00.973Z,14.30
2022-09-28T15:04:30.725Z,14.30
2022-09-28T15:07:00.526Z,14.40
2022-09-28T15:09:38.006Z,14.40
2022-09-28T15:12:15.786Z,14.30
2022-09-28T15:14:47.788Z,14.30
2022-09-28T15:17:29.193Z,14.40
2022-09-28T15:20:32.261Z,14.30
2022-09-28T15:23:00.047Z,14.30
2022-09-28T15:25:32.048Z,14.20
2022-09-28T15:28:04.467Z,14.30
2022-09-28T15:30:33.965Z,14.20
2022-09-28T15:33:22.048Z,14.20
2022-09-28T15:36:02.506Z,14.20
2022-09-28T15:38:34.005Z,14.30
2022-09-28T15:41:05.824Z,14.20
2022-09-28T15:43:34.144Z,14.10
2022-09-28T15:46:14.042Z,14.10
2022-09-28T15:48:48.152Z,14.00
2022-09-28T15:51:14.914Z,13.90
2022-09-28T15:53:43.380Z,13.70
2022-09-28T15:56:11.641Z,13.70
2022-09-28T15:58:39.482Z,13.60
2022-09-28T16:01:35.944Z,13.60
2022-09-28T16:04:38.763Z,13.50
2022-09-28T16:07:17.543Z,13.30
2022-09-28T16:10:01.897Z,13.10
2022-09-28T16:12:36.169Z,13.00
2022-09-28T16:15:24.574Z,13.00
2022-09-28T16:18:01.440Z,12.80
2022-09-28T16:20:34.131Z,12.80
2022-09-28T16:23:08.646Z,12.70
2022-09-28T16:25:39.104Z,12.60
2022-09-28T16:28:06.915Z,12.60
2022-09-28T16:30:34.819Z,12.40
2022-09-28T16:33:05.608Z,12.40
2022-09-28T16:35:35.265Z,12.30
2022-09-28T16:38:16.674Z,12.20
2022-09-28T16:40:46.226Z,12.10
2022-09-28T16:43:36.239Z,12.10
2022-09-28T16:46:09.890Z,12.00
2022-09-28T16:48:41.682Z,11.90
2022-09-28T16:51:08.373Z,11.90
2022-09-28T16:53:54.641Z,11.90
2022-09-28T16:56:21.841Z,11.80
2022-09-28T16:58:50.165Z,11.90
2022-09-28T17:01:16.856Z,11.80
2022-09-28T17:03:46.810Z,11.90
2022-09-28T17:06:14.919Z,11.80
2022-09-28T17:08:43.022Z,11.80
2022-09-28T17:11:18.115Z,11.80
2022-09-28T17:13:49.486Z,11.80
2022-09-28T17:16:32.265Z,11.70
2022-09-28T17:19:05.537Z,11.60
2022-09-28T17:21:32.257Z,11.50
2022-09-28T17:23:58.935Z,11.50
2022-09-28T17:26:30.633Z,11.40
2022-09-28T17:29:01.642Z,11.40
2022-09-28T17:31:31.308Z,11.40
2022-09-28T17:33:58.129Z,11.40
2022-09-28T17:36:26.599Z,11.40
2022-09-28T17:38:53.364Z,11.30
2022-09-28T17:41:21.225Z,11.30
2022-09-28T17:43:48.763Z,11.20
2022-09-28T17:46:28.779Z,11.20
2022-09-28T17:48:59.621Z,11.10
2022-09-28T17:51:34.770Z,11.00
2022-09-28T17:54:01.868Z,10.90
2022-09-28T17:56:32.209Z,10.80
2022-09-28T17:59:04.737Z,10.80
2022-09-28T18:01:35.379Z,10.80
2022-09-28T18:04:04.943Z,10.70
2022-09-28T18:06:35.058Z,10.70
2022-09-28T18:09:03.300Z,10.70
2022-09-28T18:11:31.475Z,10.70
2022-09-28T18:13:58.512Z,10.80
2022-09-28T18:16:28.055Z,10.80
2022-09-28T18:18:54.954Z,10.70
2022-09-28T18:21:21.728Z,10.80
2022-09-28T18:23:48.553Z,10.80
2022-09-28T18:26:16.689Z,10.80
2022-09-28T18:28:43.374Z,10.80
2022-09-28T18:31:12.320Z,10.90
2022-09-28T18:33:39.652Z,10.90
2022-09-28T18:36:08.098Z,10.90
2022-09-28T18:38:35.986Z,10.90
2022-09-28T18:41:10.524Z,10.90
2022-09-28T18:43:40.386Z,10.90
2022-09-28T18:46:10.946Z,10.90
2022-09-28T18:48:38.397Z,10.80
2022-09-28T18:51:09.429Z,10.80
2022-09-28T18:53:36.758Z,10.80
2022-09-28T18:56:12.087Z,10.80
2022-09-28T18:58:41.018Z,10.80
2022-09-28T19:01:29.601Z,10.80
2022-09-28T19:03:59.867Z,10.80
2022-09-28T19:06:26.955Z,10.70
2022-09-28T19:08:56.598Z,10.70
2022-09-28T19:11:24.621Z,10.70
2022-09-28T19:13:53.374Z,10.60
2022-09-28T19:16:24.022Z,10.60
2022-09-28T19:18:53.503Z,10.50
2022-09-28T19:21:20.799Z,10.50
2022-09-28T19:23:49.763Z,10.50
2022-09-28T19:26:20.692Z,10.50
2022-09-28T19:28:48.468Z,10.50
2022-09-28T19:31:16.132Z,10.40
2022-09-28T19:33:45.333Z,10.30
2022-09-28T19:36:23.616Z,10.30
2022-09-28T19:38:51.903Z,10.20
2022-09-28T19:41:43.144Z,10.10
2022-09-28T19:44:13.733Z,10.10
2022-09-28T19:46:41.033Z,10.10
2022-09-28T19:49:10.826Z,10.10
2022-09-28T19:51:43.850Z,10.00
2022-09-28T19:54:32.083Z,10.00
2022-09-28T19:57:07.693Z,9.90
2022-09-28T19:59:36.479Z,9.90
2022-09-28T20:02:04.557Z,9.80
2022-09-28T20:04:31.327Z,9.70
2022-09-28T20:06:58.020Z,9.70
2022-09-28T20:09:24.748Z,9.60
2022-09-28T20:11:51.901Z,9.60
2022-09-28T20:14:18.897Z,9.60
2022-09-28T20:16:48.925Z,9.60
2022-09-28T20:19:16.217Z,9.50
2022-09-28T20:21:43.187Z,9.50
2022-09-28T20:24:12.050Z,9.50
2022-09-28T20:26:39.198Z,9.40
2022-09-28T20:29:07.346Z,9.50
2022-09-28T20:31:38.577Z,9.50
2022-09-28T20:34:06.830Z,9.50
2022-09-28T20:36:34.355Z,9.50
2022-09-28T20:39:04.759Z,9.40
2022-09-28T20:41:35.646Z,9.50
2022-09-28T20:44:06.465Z,9.50
2022-09-28T20:46:36.940Z,9.50
2022-09-28T20:49:04.923Z,9.50
2022-09-28T20:51:32.287Z,9.50
2022-09-28T20:53:59.672Z,9.50
2022-09-28T20:56:28.957Z,9.50
2022-09-28T20:58:56.844Z,9.60
2022-09-28T21:01:26.336Z,9.50
2022-09-28T21:03:58.181Z,9.50
2022-09-28T21:06:25.855Z,9.50
2022-09-28T21:08:53.327Z,9.50
2022-09-28T21:11:22.560Z,9.50
2022-09-28T21:13:56.025Z,9.40
2022-09-28T21:16:22.836Z,9.40
2022-09-28T21:18:49.904Z,9.50
2022-09-28T21:21:18.810Z,9.50
2022-09-28T21:23:45.720Z,9.50
2022-09-28T21:26:12.401Z,9.50
2022-09-28T21:28:40.271Z,9.60
2022-09-28T21:31:09.729Z,9.50
2022-09-28T21:33:37.168Z,9.60
2022-09-28T21:36:06.400Z,9.60
2022-09-28T21:38:34.642Z,9.60
2022-09-28T21:41:01.408Z,9.60
2022-09-28T21:43:30.079Z,9.70
2022-09-28T21:45:58.111Z,9.60
2022-09-28T21:48:26.853Z,9.70
2022-09-28T21:51:05.094Z,9.70
2022-09-28T21:53:34.613Z,9.70
2022-09-28T21:56:02.667Z,9.70
2022-09-28T21:58:31.307Z,9.70
2022-09-28T22:01:04.973Z,9.60
2022-09-28T22:03:33.106Z,9.60
2022-09-28T22:06:00.222Z,9.50
2022-09-28T22:08:27.512Z,9.50
2022-09-28T22:11:00.802Z,9.50
2022-09-28T22:13:32.727Z,9.50
2022-09-28T22:16:00.296Z,9.50
2022-09-28T22:18:28.967Z,9.40
2022-09-28T22:21:03.069Z,9.40
2022-09-28T22:23:30.533Z,9.30
2022-09-28T22:25:59.038Z,9.30
2022-09-28T22:28:26.140Z,9.30
2022-09-28T22:30:53.085Z,9.20
2022-09-28T22:33:19.920Z,9.20
2022-09-28T22:35:49.120Z,9.10
2022-09-28T22:38:16.036Z,9.10
2022-09-28T22:40:50.254Z,9.10
2022-09-28T22:43:17.605Z,9.00
2022-09-28T22:45:44.867Z,9.00
2022-09-28T22:48:12.733Z,8.90
2022-09-28T22:50:39.693Z,8.80
2022-09-28T22:53:06.692Z,8.70
2022-09-28T22:55:34.006Z,8.70
2022-09-28T22:58:02.115Z,8.70
2022-09-28T23:00:30.621Z,8.70
2022-09-28T23:02:57.587Z,8.60
2022-09-28T23:05:24.409Z,8.50
2022-09-28T23:07:51.247Z,8.50
2022-09-28T23:10:18.224Z,8.50
2022-09-28T23:12:44.988Z,8.50
2022-09-28T23:15:13.718Z,8.40
2022-09-28T23:17:40.428Z,8.40
2022-09-28T23:20:07.655Z,8.40
2022-09-28T23:22:34.358Z,8.40
2022-09-28T23:25:01.041Z,8.40
2022-09-28T23:27:27.754Z,8.30
2022-09-28T23:29:54.489Z,8.20
2022-09-28T23:32:21.231Z,8.20
2022-09-28T23:34:51.050Z,8.10
2022-09-28T23:37:17.836Z,8.00
2022-09-28T23:39:44.691Z,8.10
2022-09-28T23:42:11.406Z,8.00
2022-09-28T23:44:38.234Z,7.90
2022-09-28T23:47:05.004Z,7.90
2022-09-28T23:49:32.270Z,7.90
2022-09-28T23:51:59.459Z,7.80
2022-09-28T23:54:26.143Z,7.70
2022-09-28T23:56:52.986Z,7.70
2022-09-28T23:59:20.887Z,7.70
